x

Shumagin Islands - 85nm South Of Sand Point, Ak (46075) Wave Buoy

12:50 - Thu 24th Apr 2014 All times are UTC.

  • Sig Wave height 12.1ft
  • Peak Period 13s
  • Average Period 9s
  • Wind
    11mph, 13mph gusts
  • Sea Temp 41°f
  • Luft Temp 41°f
  • Sea Pressure 999.5mb

More Historic Weather Station data

Upgrade to MSW Pro to gain access to the past 30 days of data for over 8000 Wavebouys and Weather Stations around the globe.

Join Pro

Comparision Forecast

View Surf forecast
   
Do 04/24 12:50 12ft 13s 9s 11 13 mph 999.5mb 41f 41f
Mi 04/23 11:50 11ft 12s 8s 11 13 mph 999.5mb 41f 41f
10:50 13ft 13s 9s 11 13 mph 999.4mb 41f 41f
9:50 13.5ft 14s 9s 13 16 mph 999.5mb 41f 40f
8:50 11.5ft 13s 9s 16 18 mph 999.4mb 41f 40f
7:50 12ft 14s 9s 13 16 mph 999.3mb 41f 40f
6:50 13.5ft 14s 9s 13 18 mph 999.1mb 41f 40f
5:50 13.5ft 14s 10s 13 16 mph 999mb 41f 40f
4:50 15ft 14s 10s 13 16 mph 998.8mb 41f 40f
3:50 14ft 15s 10s 13 16 mph 998.7mb 41f 39f
2:50 14ft 15s 10s 11 16 mph 998.7mb 41f 39f
1:50 15ft 15s 10s 11 16 mph 998.8mb 41f 40f
12:50 14ft 14s 9s 13 18 mph 998.7mb 41f 40f
11:50 15.5ft 16s 10s 13 16 mph 998.8mb 41f 40f
10:50 15.5ft 15s 10s 13 16 mph 998.8mb 41f 40f
9:50 15ft 15s 9s 13 16 mph 998.9mb 41f 40f
8:50 15ft 14s 10s 16 20 mph 998.8mb 41f 40f
7:50 15.5ft 15s 10s 13 18 mph 998.8mb 41f 40f
6:50 15ft 15s 10s 13 18 mph 998.6mb 41f 41f
5:50 13.5ft 15s 10s 16 20 mph 998.3mb 41f 41f
4:50 14.5ft 15s 10s 11 18 mph 998.1mb 41f 40f
3:50 13ft 15s 9s 13 16 mph 997.9mb 41f 41f
2:50 12.5ft 11s 9s 11 13 mph 998mb 41f 41f
1:50 13ft 16s 9s 11 16 mph 998.1mb 41f 41f
12:50 12ft 11s 9s 13 16 mph 998.3mb 41f 41f
Di 04/22 11:50 11ft 11s 8s 13 16 mph 998.4mb 41f 41f
10:50 9.5ft 11s 8s 11 13 mph 998.4mb 41f 41f
9:50 9ft 11s 8s 13 16 mph 998.5mb 41f 40f
8:50 10.5ft 11s 8s 11 16 mph 998.4mb 41f 41f
7:50 10ft 11s 8s 13 16 mph 998mb 41f 41f
6:50 9ft 11s 8s 11 16 mph 997.8mb 41f 41f
5:50 8ft 10s 7s 11 16 mph 997.7mb 41f 41f
4:50 8.5ft 11s 7s 9 11 mph 997.7mb 41f 41f
3:50 9ft 11s 7s 13 16 mph 997.6mb 41f 41f
2:50 8ft 11s 7s 9 11 mph 997.5mb 41f 41f
1:50 9ft 11s 7s 11 13 mph 997.5mb 41f 41f
12:50 8ft 10s 7s 9 11 mph 997.5mb 41f 41f
11:50 8ft 11s 6s 13 18 mph 997.4mb 41f 41f
10:50 8ft 8s 6s 11 13 mph 997.4mb 41f 41f
9:50 8.5ft 10s 6s 11 13 mph 997.6mb 41f 41f
8:50 9ft 10s 7s 13 16 mph 997.4mb 41f 41f
7:50 9ft 8s 6s 9 11 mph 997.6mb 41f 41f
6:50 9.5ft 8s 6s 9 11 mph 997.5mb 41f 41f
5:50 10ft 8s 6s 13
mph
997.1mb 41f 41f
4:50 9.5ft 8s 6s 20 27 mph 996.9mb 41f 40f
3:50 10ft 8s 6s 25 31 mph 997mb 41f 40f
2:50 10ft 7s 6s 27 31 mph 997.3mb 41f 40f
1:50 9ft 6s 5s 29 36 mph 997.5mb 41f 40f
12:50 9.5ft 8s 5s 27 34 mph 998.3mb 41f 39f
Mo 04/21 11:50 9ft 6s 5s 29 36 mph 999.2mb 41f 39f
10:50 8ft 7s 5s 29 36 mph 999.8mb 41f 38f
9:50 7ft 6s 5s 27 31 mph 1000.9mb 41f 37f
8:50 7.5ft 5s 5s 27 31 mph 1001.6mb 41f 36f
7:50 7ft 10s 6s 27 34 mph 1002mb 41f 38f
6:50 7ft 10s 5s 25 29 mph 1002.5mb 41f 38f
5:50 7ft 10s 5s 25 29 mph 1003.1mb 41f 38f
4:50 6ft 10s 6s 22 27 mph 1004.2mb 41f 38f
3:50 5.5ft 10s 6s 20 22 mph 1005.4mb 41f 38f
2:50 6.5ft 10s 7s 18 22 mph 1006.1mb 41f 38f
1:50 7ft 11s 7s 16 18 mph 1007.1mb 41f 38f
12:50 7ft 11s 7s 11 16 mph 1008.3mb 41f 38f
11:50 7ft 11s 7s 9 11 mph 1009.2mb 41f 38f
10:50 7.5ft 10s 7s 2 7 mph 1010.1mb 41f 38f
9:50 7.5ft 10s 7s  -  2 mph 1010.7mb 41f 38f
8:50 8ft 10s 8s 7 9 mph 1011.5mb 41f 39f
7:50 8ft 11s 7s 9 11 mph 1011.8mb 41f 39f
6:50 8ft 11s 7s 11 13 mph 1012.1mb 41f 39f
5:50 8ft 12s 7s 11 16 mph 1011.8mb 41f 39f
4:50 8.5ft 12s 7s 13 16 mph 1011.7mb 41f 40f
3:50 9ft 13s 7s 16 18 mph 1011.5mb 41f 40f
2:50 9ft 12s 7s 20 22 mph 1011.5mb 41f 40f
1:50 9ft 11s 7s 20 22 mph 1012mb 41f 40f
12:50 10ft 11s 7s 20 25 mph 1012mb 41f 39f
So 04/20 11:50 11ft 11s 7s 20 25 mph 1011.4mb 41f 39f
10:50 11ft 11s 7s 22 27 mph 1011.2mb 41f 39f
9:50 10.5ft 8s 7s 22 29 mph 1011.1mb 41f 39f
8:50 9.5ft 8s 6s 27 34 mph 1010.5mb 41f 39f
7:50 10ft 7s 6s 25 29 mph 1010mb 41f 38f
6:50 11ft 8s 6s 27 31 mph 1009.2mb 41f 38f
5:50 10.5ft 8s 6s 25 34 mph 1008.4mb 41f 38f
4:50 10ft 8s 6s 27 31 mph 1007.4mb 41f 38f
3:50 10.5ft 8s 7s 27 31 mph 1006.8mb 41f 38f
2:50 10ft 8s 6s 27 31 mph 1005.9mb 41f 38f
1:50 11.5ft 8s 7s 27 34 mph 1005.1mb 41f 38f
12:50 11ft 8s 6s 29 34 mph 1004.5mb 41f 38f
11:50 11.5ft 7s 6s 29 36 mph 1003.9mb 41f 39f
10:50 11ft 8s 6s 29 36 mph 1003.2mb 41f 38f
9:50 10.5ft 8s 6s 27 34 mph 1002.8mb 41f 39f
8:50 9ft 7s 6s 29 34 mph 1002.1mb 41f 39f
7:50 8.5ft 8s 6s 27 34 mph 1001.5mb 41f 39f
6:50 8ft 7s 6s 25 29 mph 1000.9mb 41f 39f
5:50 7.5ft 6s 6s 25 29 mph 1000mb 41f 39f
4:50 7ft 8s 6s 22 29 mph 999.4mb 42f 40f
3:50 6.5ft 12s 6s 22 27 mph 998.9mb 42f 40f
2:50 7ft 12s 6s 22 27 mph 998.5mb 42f 40f